Pagina principale
METAR-TAF:

METAR-TAF

Aeroporti :

Grazzanise, Italia

latitudine: 41-03N, longitudine: 014-04E, altezza: 9 m

Osservazione

Il bollettino è stato emesso 40 minuti fa, alle 16:55 UTC
Temperature 13°C
Umidità 77%
Pressione 1012 hPa
Visibilità 10 km o più
nessuna nube inferiore a 1500 m e nessun cumulonembo

METAR: LIRM 181655Z /////KT CAVOK 13/09 Q1012

Ora: 18:35 (17:35 UTC)

Previsione

Il bollettino è stato emesso 35 minuti fa, alle 17:00 UTC
Previsione valida dal 18 alle 18 UTC al 19 alle 03 UTC
Vento 5 kt da est
Poco nuvoloso ad un'altezza di 3000 ft
Nubi sparse ad un'altezza di 5000 ft

TAF: LIRM 181700Z 1818/1903 08005KT FEW030 SCT050

Osservazioni e previsioni meteorologiche di più di 4000 aeroporti (messaggi METAR e TAF).

Le stazioni disponibili sono rappresentate dai dischi gialli e rossi sulla carta.

Puntare il mouse per vedere il nome della stazione.

Clicca sopra per visualizzare le osservazioni e previsioni meteorologiche.

Per cambiare la mappa : fare clic sui pulsanti verdi con una croce nera per ingrandire, il pulsante verde con un trattino per diminuire, o sulla freccia verde per le mappe adiacenti.


METAR-TAF: